createdAt,value
2022-11-06T00:00:55.841Z,10.14
2022-11-06T00:04:04.562Z,10.12
2022-11-06T00:07:12.828Z,10.07
2022-11-06T00:10:22.712Z,10.08
2022-11-06T00:13:31.822Z,10.07
2022-11-06T00:16:47.899Z,10.09
2022-11-06T00:19:49.709Z,10.08
2022-11-06T00:23:04.848Z,10.07
2022-11-06T00:26:26.822Z,10.05
2022-11-06T00:29:35.409Z,10.06
2022-11-06T00:32:44.829Z,10.06
2022-11-06T00:35:59.894Z,9.98
2022-11-06T00:39:01.798Z,10.00
2022-11-06T00:42:17.035Z,10.01
2022-11-06T00:45:25.842Z,10.02
2022-11-06T00:48:41.819Z,9.98
2022-11-06T00:51:43.755Z,9.98
2022-11-06T00:54:58.823Z,9.98
2022-11-06T00:58:14.206Z,9.99
2022-11-06T01:01:31.905Z,9.96
2022-11-06T01:04:40.823Z,9.96
2022-11-06T01:07:55.821Z,9.98
2022-11-06T01:10:57.804Z,9.97
2022-11-06T01:14:13.822Z,9.92
2022-11-06T01:17:28.816Z,9.90
2022-11-06T01:20:44.830Z,9.94
2022-11-06T01:23:53.839Z,9.93
2022-11-06T01:27:25.902Z,9.93
2022-11-06T01:30:44.823Z,9.90
2022-11-06T01:33:46.796Z,9.91
2022-11-06T01:37:01.834Z,9.92
2022-11-06T01:40:04.109Z,9.93
2022-11-06T01:43:44.835Z,9.91
2022-11-06T01:46:46.661Z,9.92
2022-11-06T01:50:06.813Z,9.90
2022-11-06T01:53:09.178Z,9.87
2022-11-06T01:56:25.832Z,9.88
2022-11-06T01:59:36.852Z,9.85
2022-11-06T02:02:45.629Z,9.81
2022-11-06T02:06:01.854Z,9.79
2022-11-06T02:09:10.462Z,9.78
2022-11-06T02:12:29.824Z,9.84
2022-11-06T02:15:47.821Z,9.80
2022-11-06T02:19:26.636Z,9.82
2022-11-06T02:22:44.806Z,9.83
2022-11-06T02:26:07.840Z,9.86
2022-11-06T02:29:31.453Z,9.81
2022-11-06T02:32:45.857Z,9.82
2022-11-06T02:36:09.250Z,9.80
2022-11-06T02:39:28.833Z,9.84
2022-11-06T02:42:48.817Z,9.83
2022-11-06T02:46:09.833Z,9.80
2022-11-06T02:49:23.642Z,9.86
2022-11-06T02:52:47.847Z,9.85
2022-11-06T02:55:52.175Z,9.82
2022-11-06T02:59:15.840Z,9.82
2022-11-06T03:02:28.144Z,9.84
2022-11-06T03:06:07.819Z,9.85
2022-11-06T03:09:18.536Z,9.85
2022-11-06T03:12:40.811Z,9.83
2022-11-06T03:16:29.817Z,9.89
2022-11-06T03:19:38.982Z,9.86
2022-11-06T03:23:18.819Z,9.88
2022-11-06T03:26:42.829Z,9.88
2022-11-06T03:30:12.553Z,9.89
2022-11-06T03:33:40.519Z,9.88
2022-11-06T03:37:01.849Z,9.88
2022-11-06T03:40:09.770Z,9.89
2022-11-06T03:43:30.834Z,9.88
2022-11-06T03:46:44.810Z,9.89
2022-11-06T03:50:51.336Z,9.87
2022-11-06T03:54:06.000Z,9.87
2022-11-06T03:57:38.821Z,9.82
2022-11-06T04:00:55.821Z,9.86
2022-11-06T04:04:08.843Z,9.87
2022-11-06T04:07:22.465Z,9.85
2022-11-06T04:10:38.819Z,9.81
2022-11-06T04:13:42.164Z,9.88
2022-11-06T04:17:00.819Z,9.81
2022-11-06T04:20:13.834Z,9.78
2022-11-06T04:23:52.813Z,9.79
2022-11-06T04:27:13.826Z,9.78
2022-11-06T04:30:23.833Z,9.75
2022-11-06T04:34:07.808Z,9.75
2022-11-06T04:37:48.862Z,9.77
2022-11-06T04:41:03.237Z,9.74
2022-11-06T04:44:36.823Z,9.74
2022-11-06T04:47:46.245Z,9.73
2022-11-06T04:51:07.810Z,9.73
2022-11-06T04:54:10.683Z,9.74
2022-11-06T04:57:25.835Z,9.75
2022-11-06T05:00:27.718Z,9.78
2022-11-06T05:03:42.831Z,9.74
2022-11-06T05:06:51.392Z,9.75
2022-11-06T05:10:07.844Z,9.74
2022-11-06T05:13:15.819Z,9.73
2022-11-06T05:16:24.346Z,9.76
2022-11-06T05:19:32.817Z,9.78
2022-11-06T05:22:42.058Z,9.77
2022-11-06T05:25:56.814Z,9.76
2022-11-06T05:29:11.830Z,9.74
2022-11-06T05:32:13.671Z,9.76
2022-11-06T05:35:28.837Z,9.73
2022-11-06T05:38:31.587Z,9.76
2022-11-06T05:41:46.828Z,9.73
2022-11-06T05:44:54.815Z,9.74
2022-11-06T05:48:03.376Z,9.73
2022-11-06T05:51:13.817Z,9.76
2022-11-06T05:54:22.433Z,9.75
2022-11-06T05:57:41.818Z,9.76
2022-11-06T06:00:45.244Z,9.71
2022-11-06T06:03:59.833Z,9.70
2022-11-06T06:07:01.863Z,9.69
2022-11-06T06:10:17.825Z,9.66
2022-11-06T06:13:32.838Z,9.67
2022-11-06T06:16:40.824Z,9.70
2022-11-06T06:19:55.846Z,9.73
2022-11-06T06:23:09.345Z,9.76
2022-11-06T06:26:25.216Z,9.76
2022-11-06T06:29:33.818Z,9.78
2022-11-06T06:32:42.406Z,9.77
2022-11-06T06:35:56.820Z,9.79
2022-11-06T06:39:11.822Z,9.79
2022-11-06T06:42:31.108Z,9.79
2022-11-06T06:45:45.850Z,9.80
2022-11-06T06:48:48.149Z,9.80
2022-11-06T06:52:02.794Z,9.81
2022-11-06T06:55:05.837Z,9.82
2022-11-06T06:58:21.076Z,9.80
2022-11-06T07:01:23.341Z,9.81
2022-11-06T07:04:37.849Z,9.82
2022-11-06T07:07:45.816Z,9.84
2022-11-06T07:11:13.814Z,9.85
2022-11-06T07:14:22.378Z,9.84
2022-11-06T07:17:36.827Z,9.82
2022-11-06T07:20:51.838Z,9.84
2022-11-06T07:24:00.413Z,9.86
2022-11-06T07:27:21.837Z,9.84
2022-11-06T07:30:31.229Z,9.87
2022-11-06T07:33:45.860Z,9.88
2022-11-06T07:37:05.183Z,9.88
2022-11-06T07:40:15.478Z,9.90
2022-11-06T07:43:23.827Z,9.93
2022-11-06T07:46:32.352Z,9.92
2022-11-06T07:49:50.714Z,9.94
2022-11-06T07:53:02.368Z,9.95
2022-11-06T07:56:10.841Z,9.96
2022-11-06T07:59:25.846Z,9.99
2022-11-06T08:02:33.891Z,9.99
2022-11-06T08:05:48.815Z,10.02
2022-11-06T08:08:59.098Z,10.02
2022-11-06T08:12:07.803Z,10.04
2022-11-06T08:15:16.781Z,10.04
2022-11-06T08:18:31.826Z,10.05
2022-11-06T08:21:40.350Z,10.05
2022-11-06T08:24:54.833Z,10.03
2022-11-06T08:28:04.827Z,10.03
2022-11-06T08:31:13.341Z,10.00
2022-11-06T08:34:27.820Z,9.99
2022-11-06T08:37:29.676Z,9.98
2022-11-06T08:40:50.699Z,9.98
2022-11-06T08:43:55.190Z,9.99
2022-11-06T08:47:09.807Z,10.02
2022-11-06T08:50:24.824Z,10.02
2022-11-06T08:53:32.909Z,10.00
2022-11-06T08:56:41.339Z,10.00
2022-11-06T08:59:49.831Z,10.05
2022-11-06T09:03:16.315Z,10.06
2022-11-06T09:06:24.812Z,10.10
2022-11-06T09:09:33.752Z,10.19
2022-11-06T09:12:41.829Z,10.24
2022-11-06T09:15:50.381Z,10.26
2022-11-06T09:19:05.825Z,10.32
2022-11-06T09:22:14.833Z,10.38
2022-11-06T09:25:30.706Z,10.45
2022-11-06T09:28:38.813Z,10.52
2022-11-06T09:31:47.446Z,10.52
2022-11-06T09:35:01.840Z,10.55
2022-11-06T09:38:18.822Z,10.65
2022-11-06T09:41:44.047Z,10.72
2022-11-06T09:45:19.037Z,10.78
2022-11-06T09:48:48.981Z,10.82
2022-11-06T09:52:02.163Z,10.86
2022-11-06T09:55:22.836Z,10.94
2022-11-06T09:58:37.670Z,10.98
2022-11-06T10:01:54.986Z,11.05
2022-11-06T10:05:18.834Z,11.14
2022-11-06T10:08:24.096Z,11.21
2022-11-06T10:12:17.030Z,11.28
2022-11-06T10:15:29.912Z,11.27
2022-11-06T10:18:58.845Z,11.37
2022-11-06T10:22:24.885Z,11.37
2022-11-06T10:25:53.810Z,11.32
2022-11-06T10:29:24.843Z,11.40
2022-11-06T10:32:55.617Z,11.43
2022-11-06T10:36:29.998Z,11.51
2022-11-06T10:39:45.809Z,11.46
2022-11-06T10:43:14.108Z,11.44
2022-11-06T10:46:28.126Z,11.47
2022-11-06T10:49:36.856Z,11.44
2022-11-06T10:52:54.178Z,11.39
2022-11-06T10:56:30.833Z,11.38
2022-11-06T10:59:39.953Z,11.35
2022-11-06T11:03:06.846Z,11.39
2022-11-06T11:06:22.827Z,11.43
2022-11-06T11:09:39.811Z,11.41
2022-11-06T11:12:51.834Z,11.43
2022-11-06T11:16:08.817Z,11.40
2022-11-06T11:19:41.515Z,11.45
2022-11-06T11:23:20.868Z,11.40
2022-11-06T11:26:49.861Z,11.38
2022-11-06T11:30:04.837Z,11.36
2022-11-06T11:33:13.763Z,11.38
2022-11-06T11:36:29.825Z,11.43
2022-11-06T11:39:34.848Z,11.43
2022-11-06T11:42:51.442Z,11.45
2022-11-06T11:46:09.562Z,11.50
2022-11-06T11:49:37.828Z,11.59
2022-11-06T11:52:57.156Z,11.64
2022-11-06T11:56:14.097Z,11.71
2022-11-06T11:59:29.836Z,11.72
2022-11-06T12:02:46.132Z,11.74
2022-11-06T12:05:58.829Z,11.86
2022-11-06T12:09:13.464Z,11.94
2022-11-06T12:12:32.005Z,12.00
2022-11-06T12:15:55.863Z,12.00
2022-11-06T12:19:07.114Z,12.09
2022-11-06T12:22:30.152Z,12.15
2022-11-06T12:25:51.504Z,12.20
2022-11-06T12:29:25.803Z,12.22
2022-11-06T12:32:44.327Z,12.32
2022-11-06T12:36:05.222Z,12.34
2022-11-06T12:39:26.823Z,12.40
2022-11-06T12:42:40.817Z,12.45
2022-11-06T12:46:17.840Z,12.51
2022-11-06T12:50:02.110Z,12.55
2022-11-06T12:53:43.097Z,12.59
2022-11-06T12:57:03.424Z,12.56
2022-11-06T13:00:32.114Z,12.53
2022-11-06T13:04:06.166Z,12.55
2022-11-06T13:07:35.430Z,12.52
2022-11-06T13:11:10.854Z,12.51
2022-11-06T13:14:32.462Z,12.50
2022-11-06T13:18:18.829Z,12.47
2022-11-06T13:21:56.165Z,12.50
2022-11-06T13:25:54.179Z,12.45
2022-11-06T13:29:11.431Z,12.38
2022-11-06T13:32:31.854Z,12.42
2022-11-06T13:35:51.239Z,12.37
2022-11-06T13:39:07.616Z,12.37
2022-11-06T13:42:34.193Z,12.37
2022-11-06T13:46:22.196Z,12.38
2022-11-06T13:49:40.711Z,12.37
2022-11-06T13:53:00.148Z,12.33
2022-11-06T13:56:12.341Z,12.31
2022-11-06T14:00:07.825Z,12.32
2022-11-06T14:03:40.842Z,12.28
2022-11-06T14:06:58.765Z,12.32
2022-11-06T14:10:27.842Z,12.29
2022-11-06T14:13:40.846Z,12.21
2022-11-06T14:17:08.484Z,12.23
2022-11-06T14:20:44.829Z,12.23
2022-11-06T14:23:59.844Z,12.15
2022-11-06T14:27:28.895Z,12.15
2022-11-06T14:31:11.459Z,12.20
2022-11-06T14:34:27.351Z,12.23
2022-11-06T14:37:48.901Z,12.22
2022-11-06T14:40:58.851Z,12.20
2022-11-06T14:44:40.254Z,12.17
2022-11-06T14:47:54.489Z,12.17
2022-11-06T14:51:17.180Z,12.14
2022-11-06T14:54:23.721Z,12.14
2022-11-06T14:57:48.837Z,12.07
2022-11-06T15:00:53.922Z,12.08
2022-11-06T15:04:19.881Z,12.08
2022-11-06T15:08:02.570Z,12.05
2022-11-06T15:11:11.820Z,11.98
2022-11-06T15:14:20.927Z,11.90
2022-11-06T15:17:40.842Z,11.91
2022-11-06T15:20:51.917Z,11.82
2022-11-06T15:24:32.878Z,11.73
2022-11-06T15:28:11.240Z,11.68
2022-11-06T15:31:27.874Z,11.61
2022-11-06T15:34:45.120Z,11.57
2022-11-06T15:37:57.881Z,11.56
2022-11-06T15:41:25.717Z,11.54
2022-11-06T15:44:35.835Z,11.51
2022-11-06T15:48:24.215Z,11.49
2022-11-06T15:51:45.893Z,11.46
2022-11-06T15:55:06.319Z,11.41
2022-11-06T15:58:41.806Z,11.38
2022-11-06T16:01:56.665Z,11.33
2022-11-06T16:05:07.873Z,11.25
2022-11-06T16:08:26.121Z,11.19
2022-11-06T16:11:29.673Z,11.08
2022-11-06T16:14:47.003Z,10.99
2022-11-06T16:18:12.898Z,10.83
2022-11-06T16:21:22.819Z,10.78
2022-11-06T16:24:47.232Z,10.65
2022-11-06T16:28:13.397Z,10.66
2022-11-06T16:31:37.262Z,10.69
2022-11-06T16:34:49.206Z,10.67
2022-11-06T16:38:39.850Z,10.74
2022-11-06T16:42:04.354Z,10.76
2022-11-06T16:45:30.232Z,10.80
2022-11-06T16:48:48.174Z,10.83
2022-11-06T16:52:04.229Z,10.86
2022-11-06T16:55:17.071Z,10.88
2022-11-06T16:58:35.150Z,10.87
2022-11-06T17:01:53.376Z,10.83
2022-11-06T17:05:23.292Z,10.77
2022-11-06T17:08:41.157Z,10.69
2022-11-06T17:12:01.209Z,10.65
2022-11-06T17:15:03.842Z,10.62
2022-11-06T17:18:26.835Z,10.63
2022-11-06T17:21:37.935Z,10.59
2022-11-06T17:24:49.146Z,10.57
2022-11-06T17:28:05.250Z,10.53
2022-11-06T17:31:17.169Z,10.48
2022-11-06T17:34:35.107Z,10.40
2022-11-06T17:37:44.818Z,10.34
2022-11-06T17:40:54.191Z,10.31
2022-11-06T17:44:14.849Z,10.27
2022-11-06T17:47:25.658Z,10.23
2022-11-06T17:50:42.217Z,10.16
2022-11-06T17:53:46.439Z,10.15
2022-11-06T17:57:07.206Z,10.14
2022-11-06T18:00:19.328Z,10.12
2022-11-06T18:03:36.772Z,10.09
2022-11-06T18:06:48.118Z,10.08
2022-11-06T18:10:04.259Z,10.19
2022-11-06T18:13:14.181Z,10.20
2022-11-06T18:16:27.045Z,10.12
2022-11-06T18:19:43.283Z,10.06
2022-11-06T18:23:01.236Z,10.01
2022-11-06T18:26:16.912Z,9.95
2022-11-06T18:29:28.270Z,9.92
2022-11-06T18:32:37.588Z,9.88
2022-11-06T18:35:53.832Z,9.79
2022-11-06T18:38:56.605Z,9.71
2022-11-06T18:42:13.279Z,9.66
2022-11-06T18:45:22.001Z,9.66
2022-11-06T18:48:32.286Z,9.64
2022-11-06T18:51:49.251Z,9.67
2022-11-06T18:55:00.727Z,9.68
2022-11-06T18:58:17.491Z,9.67
2022-11-06T19:01:21.868Z,9.67
2022-11-06T19:04:38.386Z,9.68
2022-11-06T19:07:53.865Z,9.71
2022-11-06T19:11:07.480Z,9.74
2022-11-06T19:14:17.265Z,9.77
2022-11-06T19:17:26.472Z,9.72
2022-11-06T19:20:46.263Z,9.76
2022-11-06T19:24:04.718Z,9.75
2022-11-06T19:27:37.604Z,9.74
2022-11-06T19:30:40.673Z,9.70
2022-11-06T19:33:58.281Z,9.73
2022-11-06T19:37:08.591Z,9.75
2022-11-06T19:40:21.315Z,9.75
2022-11-06T19:43:38.150Z,9.74
2022-11-06T19:46:54.288Z,9.76
2022-11-06T19:50:12.246Z,9.76
2022-11-06T19:53:30.844Z,9.76
2022-11-06T19:56:34.077Z,9.74
2022-11-06T19:59:51.299Z,9.71
2022-11-06T20:03:09.725Z,9.71
2022-11-06T20:06:23.677Z,9.67
2022-11-06T20:09:32.898Z,9.64
2022-11-06T20:12:43.098Z,9.61
2022-11-06T20:15:53.863Z,9.53
2022-11-06T20:19:03.499Z,9.45
2022-11-06T20:22:19.823Z,9.36
2022-11-06T20:25:43.761Z,9.37
2022-11-06T20:29:00.260Z,9.38
2022-11-06T20:32:03.445Z,9.35
2022-11-06T20:35:19.287Z,9.33
2022-11-06T20:38:29.657Z,9.25
2022-11-06T20:41:46.279Z,9.31
2022-11-06T20:44:55.877Z,9.29
2022-11-06T20:48:06.515Z,9.20
2022-11-06T20:51:19.224Z,9.23
2022-11-06T20:54:29.298Z,9.24
2022-11-06T20:57:45.225Z,9.21
2022-11-06T21:01:08.272Z,9.21
2022-11-06T21:04:19.184Z,9.17
2022-11-06T21:07:34.851Z,9.12
2022-11-06T21:10:58.891Z,9.06
2022-11-06T21:14:12.255Z,8.95
2022-11-06T21:17:27.814Z,8.86
2022-11-06T21:20:36.836Z,8.80
2022-11-06T21:23:53.172Z,8.79
2022-11-06T21:27:15.161Z,8.76
2022-11-06T21:30:24.300Z,8.71
2022-11-06T21:33:39.341Z,8.66
2022-11-06T21:36:41.638Z,8.63
2022-11-06T21:39:57.194Z,8.56
2022-11-06T21:43:13.163Z,8.52
2022-11-06T21:46:22.830Z,8.44
2022-11-06T21:49:37.813Z,8.40
2022-11-06T21:52:39.642Z,8.36
2022-11-06T21:55:54.831Z,8.33
2022-11-06T21:59:11.850Z,8.34
2022-11-06T22:02:19.987Z,8.30
2022-11-06T22:05:34.847Z,8.30
2022-11-06T22:08:44.866Z,8.26
2022-11-06T22:11:59.831Z,8.26
2022-11-06T22:15:08.822Z,8.26
2022-11-06T22:18:23.846Z,8.28
2022-11-06T22:21:34.819Z,8.28
2022-11-06T22:24:49.842Z,8.28
2022-11-06T22:27:58.045Z,8.27
2022-11-06T22:31:13.842Z,8.27
2022-11-06T22:34:28.822Z,8.23
2022-11-06T22:37:43.833Z,8.19
2022-11-06T22:40:53.253Z,8.18
2022-11-06T22:44:07.847Z,8.16
2022-11-06T22:47:22.820Z,8.13
2022-11-06T22:50:24.631Z,8.17
2022-11-06T22:53:40.850Z,8.14
2022-11-06T22:56:48.846Z,8.08
2022-11-06T23:00:03.832Z,7.99
2022-11-06T23:03:12.798Z,8.02
2022-11-06T23:06:21.870Z,8.03
2022-11-06T23:09:30.413Z,8.00
2022-11-06T23:12:38.839Z,7.96
2022-11-06T23:15:54.854Z,7.96
2022-11-06T23:18:56.903Z,7.93
2022-11-06T23:22:11.859Z,7.90
2022-11-06T23:25:20.851Z,7.94
2022-11-06T23:28:42.856Z,7.96
2022-11-06T23:31:44.728Z,7.93
2022-11-06T23:34:59.855Z,7.96
2022-11-06T23:38:01.642Z,7.96
2022-11-06T23:41:21.856Z,7.99
2022-11-06T23:44:30.392Z,7.97
2022-11-06T23:47:39.832Z,8.00
2022-11-06T23:50:48.427Z,8.02
2022-11-06T23:53:56.816Z,8.07
2022-11-06T23:57:05.353Z,8.09
